Shearwater — 3ESK5 — position and weather

sailwx.info

Track history (hours):
 
Tides and Currents Weather Stations Pressure Air Temp Water Temp Dewpoint Dewpoint Depression Visibility Wind Speed Wind Dir Waves Ship Positions

Shearwater

Last reported at 2014-Oct-19 07:33 UTC. Time now 2014-Oct-24 16:55 UTC.
Position N 01°13' E 103°53'.

Length 210 m; draft 7.9 m.

Type: Ship. MMSI: 370338000.

Date/timePositionNaut miles runAvg speedWind from/ knotsBaromVisibWave heightAir tempDewpointWater temp
2014-Oct-19 07:33N 01°13' E 103°53'1010.2
2014-Oct-19 06:33N 01°17' E 104°03'2 0.1
2014-Oct-18 07:21N 01°18' E 104°03'3 3.3
2014-Oct-18 06:33N 01°17' E 104°05'7 7.3
2014-Oct-18 05:33N 01°18' E 104°13'  
2014-Oct-13 14:31N 22°02' E 118°47'1313.9
2014-Oct-13 13:33N 22°13' E 118°56'1413.9
2014-Oct-13 12:31N 22°24' E 119°06'1514.4
2014-Oct-13 11:29N 22°35' E 119°16'1415.3
2014-Oct-13 10:33N 22°46' E 119°26'1716.1
2014-Oct-13 09:29N 22°60' E 119°37'  
Track history (hours):
 
Tides and Currents Weather Stations Pressure Air Temp Water Temp Dewpoint Dewpoint Depression Visibility Wind Speed Wind Dir Waves Ship Positions

Shearwater

Last reported at 2014-Oct-19 07:33 UTC. Time now 2014-Oct-24 16:55 UTC.
Position N 01°13' E 103°53'.

Length 210 m; draft 7.9 m.

Type: Ship. MMSI: 370338000.

Date/timePositionNaut miles runAvg speedWind from/ knotsBaromVisibWave heightAir tempDewpointWater temp
2014-Oct-19 07:33N 01°13' E 103°53'1010.2
2014-Oct-19 06:33N 01°17' E 104°03'2 0.1
2014-Oct-18 07:21N 01°18' E 104°03'3 3.3
2014-Oct-18 06:33N 01°17' E 104°05'7 7.3
2014-Oct-18 05:33N 01°18' E 104°13'  
2014-Oct-13 14:31N 22°02' E 118°47'1313.9
2014-Oct-13 13:33N 22°13' E 118°56'1413.9
2014-Oct-13 12:31N 22°24' E 119°06'1514.4
2014-Oct-13 11:29N 22°35' E 119°16'1415.3
2014-Oct-13 10:33N 22°46' E 119°26'1716.1
2014-Oct-13 09:29N 22°60' E 119°37'  

Dump ship's entire track history